Regionale Übersicht

METAR und TAF

Donnerstag, 28. Mai 2020 - 08:25 Uhr

Beobachtete horizontale meteorologische Sicht an ausgewählten Flughäfen. Die vollständigen METARs und Flugwettervorhersagen (TAFs) sind verfügbar, wenn Sie auf das entsprechende Symbol mit der ICAO-Flughafenkennung klicken.

  • Luxemburg (ELLX)

    Taf: TAF ELLX 280500Z 2806/2912 04012KT CAVOK=

    Metar: METAR ELLX 280550Z 04014KT CAVOK 14/08 Q1030 NOSIG=

  • Spangdahlem (ETAD)

    Taf: TAF ETAD 280400Z 2804/2910 06009KT 9999 FEW100 QNH3036INS BECMG 2816/2817 03012KT 9999 FEW050 FEW100 QNH3033INS BECMG 2902/2903 04006KT 9999 FEW040 QNH3030INS TX21/2815Z TN08/2904Z=

    Metar: METAR ETAD 280556Z AUTO 06011KT 9999 CLR 13/06 A3045 RMK AO2 SLP295 T01280055 10143 20119 53005 $=

  • Metz/Nancy (LFJL)

    Taf: TAF LFJL 280500Z 2806/2906 02006KT CAVOK BECMG 2808/2810 04010KT TEMPO 2815/2818 04010G20KT=

    Metar: METAR LFJL 280600Z AUTO 01007KT CAVOK 15/10 Q1029 NOSIG=

  • Saarbrücken/Intl (EDDR)

    Taf: TAF EDDR 280500Z 2806/2906 05010KT CAVOK=

    Metar: METAR EDDR 280550Z 04011KT 010V070 CAVOK 14/09 Q1029 NOSIG=

  • Hahn (EDFH)

    Taf: TAF EDFH 280500Z 2806/2906 04010KT CAVOK=

    Metar: METAR EDFH 280550Z 01010KT CAVOK 11/07 Q1031=

  • Ramstein (ETAR)

    Taf: TAF ETAR 280200Z 2802/2908 VRB06KT 9999 BKN050 QNH3039INS TEMPO 2806/2810 04010G20KT 510004 BECMG 2809/2810 04012G20KT 9999 SKC 510004 QNH3034INS BECMG 2816/2817 06009KT 9999 SKC QNH3033INS TX22/2814Z TN08/2902Z=

    Metar: METAR ETAR 280556Z AUTO 01009KT 9999 CLR 15/10 A3042 RMK AO2 SLP299 T01490103 10149 20096 52005 FZRANO $=

  • Nancy/Ochey (LFSO)

    Taf: TAF AMD LFSO 280445Z 2804/2903 01003KT CAVOK BECMG 2823/2901 07010KT=

    Metar: METAR LFSO 280600Z AUTO 01004KT CAVOK 14/10 Q1029 NOSIG=

  • Liège Bierset (EBLG)

    Taf: TAF EBLG 280500Z 2806/2912 05011KT CAVOK=

    Metar: METAR EBLG 280550Z 05010KT CAVOK 11/06 Q1033 NOSIG=

  • Saint-Dizier (LFSI)

    Taf: TAF AMD LFSI 280455Z 2804/2903 01005KT CAVOK TEMPO 2814/2820 06015KT=

    Metar: METAR LFSI 280600Z AUTO VRB02KT CAVOK 14/10 Q1029=

  • Maastricht/Zuid Limburg (EHBK)

    Taf: TAF EHBK 280453Z 2806/2912 04010KT CAVOK=

    Metar: METAR EHBK 280555Z AUTO 06012KT 030V090 9999 NCD 11/06 Q1033 NOSIG=

  • Köln/Köln-Bonn (EDDK)

    Taf: TAF EDDK 280500Z 2806/2912 35005KT CAVOK BECMG 2808/2811 36010KT BECMG 2819/2822 07004KT=

    Metar: METAR EDDK 280550Z 02008KT 340V060 9999 FEW025 12/07 Q1033 NOSIG=

  • Charleroi (EBCI)

    Taf: TAF EBCI 280500Z 2806/2912 05011KT CAVOK=

    Metar: METAR EBCI 280550Z AUTO 05012KT CAVOK 11/05 Q1033=

  • Wiesbaden (ETOU)

    Taf: TAF ETOU 272000Z 2720/2902 VRB06KT 9999 SCT050 BKN100 QNH3040INS BECMG 2807/2808 03010G15KT 9999 SKC QNH3055INS TX24/2815Z TN08/2804Z=

    Metar: METAR ETOU 280556Z AUTO 03005KT 9999 CLR 15/07 A3044 RMK AO2 SLP307 T01530071 10172 20144 52010 $=

  • Karlsruhe/Baden-Baden (EDSB)

    Taf: TAF EDSB 280500Z 2806/2906 02012KT CAVOK TEMPO 2806/2818 02015G25KT BECMG 2818/2820 03007KT=

    Metar: METAR EDSB 280550Z 06006KT CAVOK 16/10 Q1029=

  • Chalons/Vatry (LFOK)

    Taf: TAF LFOK 280500Z 2806/2906 02012KT CAVOK=

    Metar: METAR LFOK 280600Z AUTO 01010KT CAVOK 14/10 Q1030 NOSIG=

  • Frankfurt/Main (EDDF)

    Taf: TAF EDDF 280500Z 2806/2912 01013KT CAVOK TEMPO 2806/2818 01015G25KT BECMG 2818/2820 04007KT=

    Metar: METAR EDDF 280550Z 02017KT 9999 FEW026 15/07 Q1030 NOSIG=

  • Brüssel (EBBR)

    Taf: TAF EBBR 280500Z 2806/2912 05010KT CAVOK=

    Metar: METAR EBBR 280550Z 06006KT 040V100 CAVOK 11/06 Q1034 NOSIG=

  • Düsseldorf (EDDL)

    Taf: TAF EDDL 280500Z 2806/2912 03007KT CAVOK BECMG 2807/2810 02012KT BECMG 2818/2821 02007KT PROB40 TEMPO 2902/2908 VRB03KT=

    Metar: METAR EDDL 280550Z 04013KT CAVOK 12/07 Q1034 NOSIG=

  • Luxeuil (LFSX)

    Taf: TAF LFSX 280200Z 2803/2903 10003KT CAVOK=

    Metar: METAR LFSX 280600Z AUTO VRB02KT CAVOK 12/09 Q1028=

  • Eindhoven (EHEH)

    Taf: TAF EHEH 280500Z NIL=

    Metar: METAR EHEH 280555Z AUTO 05010KT 010V090 9999 NCD 12/06 Q1035 BLU 04009KT CAVOK TEMPO 04010G20KT=

  • Niederrhein (EDLV)

    Taf: TAF EDLV 280500Z NIL=

    Metar: METAR EDLV 280550Z NIL=

  • Dortmund/Wickede (EDLW)

    Taf: TAF EDLW 280500Z 2806/2906 02004KT CAVOK BECMG 2808/2811 02009KT BECMG 2818/2821 04004KT=

    Metar: METAR EDLW 280550Z 05008KT CAVOK 10/06 Q1034=

  • Stuttgart/Echterdingen (EDDS)

    Taf: TAF EDDS 280500Z 2806/2906 VRB03KT CAVOK BECMG 2807/2809 36008KT BECMG 2818/2820 VRB03KT=

    Metar: METAR EDDS 280550Z 09002KT CAVOK 13/08 Q1029 NOSIG=

  • Basel-Mühlhausen (LFSB)

    Taf: TAF LFSB 280500Z 2806/2906 VRB03KT CAVOK BECMG 2807/2810 36010KT TEMPO 2813/2816 36012G22KT FEW050TCU BECMG 2820/2822 32005KT=

    Metar: METAR LFSB 280600Z AUTO 13003KT CAVOK 12/09 Q1028 BECMG 36010KT=

  • Lille (LFQQ)

    Taf: TAF LFQQ 280500Z 2806/2912 05012KT CAVOK=

    Metar: METAR LFQQ 280600Z AUTO 05010KT CAVOK 12/05 Q1033 NOSIG=

  • Paris/Charles de Gaulle (LFPG)

    Taf: TAF LFPG 280500Z 2806/2912 02010KT CAVOK TX25/2815Z TN12/2904Z=

    Metar: METAR LFPG 280600Z AUTO 02010KT CAVOK 13/08 Q1031 NOSIG=

  • Paderborn/Lippstadt (EDLP)

    Taf: TAF EDLP 280520Z 2806/2906 VRB03KT CAVOK BECMG 2807/2810 36007KT BECMG 2817/2820 VRB03KT TEMPO 2903/2906 16006KT=

    Metar: METAR EDLP 280550Z VRB03KT CAVOK 10/06 Q1034=

  • Paris/Le Bourget (LFPB)

    Taf: TAF LFPB 280500Z 2806/2906 02010KT CAVOK=

    Metar: METAR LFPB 280600Z AUTO 01007KT 340V050 9999 NCD 13/08 Q1031=

  • Rotterdam (EHRD)

    Taf: TAF COR EHRD 280507Z 2806/2912 05009KT CAVOK BECMG 2806/2808 03012KT BECMG 2818/2821 05006KT=

    Metar: METAR EHRD 280555Z AUTO 06011KT 030V090 9999 NCD 12/07 Q1035 NOSIG=

  • Zürich/Kloten (LSZH)

    Taf: TAF LSZH 280525Z 2806/2912 VRB03KT CAVOK TX23/2813Z TN10/2806Z TN07/2904Z BECMG 2810/2813 03008KT 9999 SCT060 PROB30 2812/2818 SHRA SCT050TCU TEMPO 2812/2901 04012KT BECMG 2820/2823 CAVOK BECMG 2905/2908 04015G27KT=

    Metar: METAR LSZH 280550Z 28002KT CAVOK 11/07 Q1029 NOSIG=

  • Oostende/Intl (EBOS)

    Taf: TAF EBOS 280500Z 2806/2912 07012KT CAVOK PROB40 TEMPO 2813/2819 02015G25KT=

    Metar: METAR EBOS 280550Z 07012KT CAVOK 12/05 Q1035 NOSIG=

  • Paris/Orly (LFPO)

    Taf: TAF LFPO 280500Z 2806/2912 03010KT CAVOK=

    Metar: METAR LFPO 280600Z AUTO 02010KT 350V060 9999 2100 NSC 14/08 Q1031 NOSIG=

  • Beauvais (LFOB)

    Taf: TAF LFOB 280500Z 2806/2906 05012KT CAVOK PROB30 TEMPO 2806/2808 BKN011=

    Metar: METAR LFOB 280600Z AUTO 03009KT 9999 FEW007 13/10 Q1032 TEMPO BKN011=

  • Münster/Intl (EDDG)

    Taf: TAF EDDG 280500Z 2806/2906 01005KT CAVOK BECMG 2806/2809 36010KT BECMG 2818/2821 01004KT=

    Metar: METAR EDDG 280550Z 03008KT 9999 FEW015 12/08 Q1034 NOSIG=

  • Illesheim (ETIK)

    Taf: TAF ETIK 272200Z 2722/2904 VRB06KT 9999 SCT050 QNH3040INS BECMG 2801/2802 27009KT 9999 BKN060 620603 QNH3038INS BECMG 2803/2804 03012KT 8000 -SHRA OVC040 650604 QNH3040INS TEMPO 2805/2808 BKN015 BECMG 2807/2808 03012G18KT 9999 NSW SCT025 BKN050 QNH3038INS BECMG 2817/2818 06012KT 9999 SCT060 QNH3037INS TX20/2816Z TN09/2800Z=

    Metar: METAR ETIK 280556Z AUTO 05003KT 9999 SCT060 13/11 A3041 RMK AO2 SLP295 60000 T01340111 10135 20082 52008 $=

  • Duebendorf (LSMD)

    Taf: TAF LSMD 280500Z NIL=

    Metar: METAR LSMD 280550Z 00000KT CAVOK 11/07 Q1029 RMK BLU=

  • Villacoublay (LFPV)

    Taf: TAF LFPV 280200Z 2803/2903 04010KT CAVOK=

    Metar: METAR LFPV 280600Z AUTO 02009KT 340V060 CAVOK 13/08 Q1031 NOSIG=

  • Payerne (LSMP)

    Taf: TAF LSMP 280525Z 2806/2912 VRB03KT CAVOK BECMG 2810/2812 05010G20KT 9999 FEW060=

    Metar: METAR LSMP 280550Z AUTO 00000KT 9999NDV NCD 11/06 Q1029 RMK=

  • Amsterdam/Schipol (EHAM)

    Taf: TAF EHAM 280456Z 2806/2912 05008KT CAVOK BECMG 2806/2809 03012KT BECMG 2818/2821 05007KT=

    Metar: METAR EHAM 280555Z 06011KT 030V090 CAVOK 13/08 Q1035 NOSIG=

  • Emmen (LSME)

    Taf: TAF LSME 280500Z NIL=

    Metar: METAR LSME 280550Z 00000KT 9999 SCT140 10/07 Q1029 RMK BLU+=

  • Friedrichshafen (EDNY)

    Taf: TAF EDNY 280500Z 2806/2906 VRB03KT CAVOK BECMG 2808/2810 03007KT TEMPO 2812/2816 4000 SHRA BKN012CB=

    Metar: METAR EDNY 280550Z 06004KT CAVOK 11/07 Q1029=

  • Alpnach (LSMA)

    Taf: TAF LSMA 280500Z NIL=

    Metar: METAR LSMA 280550Z VRB02KT 9999 SCT140 10/07 Q1029 RMK BLU+=

  • Meiringen (LSMM)

    Taf: TAF LSMM 280500Z NIL=

    Metar: METAR LSMM 280550Z 12003KT 060V150 CAVOK 10/06 Q1029 RMK BLU=

  • Nürnberg (EDDN)

    Taf: TAF EDDN 280500Z 2806/2906 VRB03KT CAVOK BECMG 2806/2808 36007KT BECMG 2819/2821 VRB03KT=

    Metar: METAR EDDN 280550Z 36006KT CAVOK 13/09 Q1029 NOSIG=

  • Rouen (LFOP)

    Taf: TAF LFOP 280500Z 2806/2906 05012KT CAVOK PROB30 TEMPO 2806/2808 BKN011=

    Metar: METAR LFOP 280600Z AUTO 04008KT 9999 FEW008 12/09 Q1032 TEMPO BKN011=

  • Evreux (LFOE)

    Taf: TAF AMD LFOE 280340Z 2803/2903 04005KT CAVOK TEMPO 2812/2824 05010G20KT=

    Metar: METAR LFOE 280600Z AUTO 03009KT 360V060 CAVOK 12/08 Q1032 NOSIG=

  • Erfurt/Bindersleben (EDDE)

    Taf: TAF EDDE 280500Z 2806/2906 36006KT 9999 SCT030 TEMPO 2903/2906 BKN008=

    Metar: METAR EDDE 280550Z 01009KT 9999 SCT014 11/08 Q1031 NOSIG=